createdAt,value
2017-07-12T00:00:44.516Z,82.80
2017-07-12T00:03:12.852Z,82.20
2017-07-12T00:05:41.162Z,81.80
2017-07-12T00:08:09.510Z,81.40
2017-07-12T00:10:37.056Z,81.30
2017-07-12T00:13:05.393Z,79.70
2017-07-12T00:15:33.706Z,79.00
2017-07-12T00:18:02.039Z,78.30
2017-07-12T00:20:30.351Z,78.10
2017-07-12T00:22:58.688Z,78.00
2017-07-12T00:25:27.000Z,78.20
2017-07-12T00:27:55.347Z,78.30
2017-07-12T00:30:23.662Z,77.40
2017-07-12T00:32:52.012Z,77.00
2017-07-12T00:35:20.330Z,76.70
2017-07-12T00:37:48.685Z,76.50
2017-07-12T00:40:16.996Z,76.20
2017-07-12T00:42:45.336Z,75.80
2017-07-12T00:45:13.660Z,75.90
2017-07-12T00:47:42.005Z,75.60
2017-07-12T00:50:09.560Z,75.50
2017-07-12T00:52:37.905Z,75.20
2017-07-12T00:55:06.220Z,75.30
2017-07-12T00:57:34.564Z,75.30
2017-07-12T01:00:02.881Z,76.20
2017-07-12T01:02:31.227Z,75.90
2017-07-12T01:04:59.544Z,76.10
2017-07-12T01:07:27.853Z,76.00
2017-07-12T01:09:56.208Z,76.00
2017-07-12T01:12:24.516Z,75.90
2017-07-12T01:14:52.872Z,76.30
2017-07-12T01:17:21.193Z,76.20
2017-07-12T01:19:48.784Z,76.30
2017-07-12T01:22:17.099Z,76.10
2017-07-12T01:24:45.456Z,76.20
2017-07-12T01:27:13.770Z,76.20
2017-07-12T01:29:42.122Z,76.40
2017-07-12T01:32:10.437Z,76.40
2017-07-12T01:34:38.777Z,76.40
2017-07-12T01:37:07.092Z,76.30
2017-07-12T01:39:35.428Z,76.30
2017-07-12T01:42:03.744Z,76.20
2017-07-12T01:44:32.084Z,76.10
2017-07-12T01:47:00.396Z,76.10
2017-07-12T01:49:28.734Z,75.70
2017-07-12T01:51:57.044Z,75.30
2017-07-12T01:54:25.390Z,75.10
2017-07-12T01:56:53.702Z,75.00
2017-07-12T01:59:22.042Z,75.20
2017-07-12T02:01:50.366Z,75.40
2017-07-12T02:04:18.705Z,75.30
2017-07-12T02:06:47.017Z,75.20
2017-07-12T02:09:15.498Z,75.30
2017-07-12T02:11:43.781Z,75.50
2017-07-12T02:14:12.121Z,75.40
2017-07-12T02:16:40.436Z,75.50
2017-07-12T02:19:08.768Z,75.50
2017-07-12T02:21:37.079Z,75.80
2017-07-12T02:24:05.510Z,75.80
2017-07-12T02:26:33.815Z,75.70
2017-07-12T02:29:02.278Z,75.50
2017-07-12T02:31:30.585Z,75.70
2017-07-12T02:33:58.921Z,75.80
2017-07-12T02:36:27.231Z,75.60
2017-07-12T02:38:54.874Z,75.50
2017-07-12T02:41:23.191Z,75.20
2017-07-12T02:43:51.615Z,75.10
2017-07-12T02:46:19.929Z,74.90
2017-07-12T02:48:48.273Z,75.00
2017-07-12T02:51:16.585Z,75.30
2017-07-12T02:53:44.924Z,75.70
2017-07-12T02:56:13.248Z,75.70
2017-07-12T02:58:41.688Z,76.10
2017-07-12T03:01:10.048Z,76.50
2017-07-12T03:03:38.392Z,76.60
2017-07-12T03:06:06.706Z,76.80
2017-07-12T03:08:35.048Z,77.30
2017-07-12T03:11:03.451Z,77.30
2017-07-12T03:13:31.789Z,77.40
2017-07-12T03:16:00.112Z,77.60
2017-07-12T03:18:28.466Z,77.90
2017-07-12T03:20:56.785Z,77.90
2017-07-12T03:23:24.332Z,77.90
2017-07-12T03:25:52.733Z,77.80
2017-07-12T03:28:21.047Z,77.80
2017-07-12T03:30:49.493Z,77.90
2017-07-12T03:33:17.036Z,77.90
2017-07-12T03:35:45.422Z,78.00
2017-07-12T03:38:13.731Z,77.90
2017-07-12T03:40:42.064Z,78.10
2017-07-12T03:43:10.372Z,77.80
2017-07-12T03:45:38.707Z,77.90
2017-07-12T03:48:07.017Z,78.00
2017-07-12T03:50:35.361Z,78.10
2017-07-12T03:53:03.663Z,77.60
2017-07-12T03:55:32.020Z,77.60
2017-07-12T03:58:00.327Z,77.50
2017-07-12T04:00:28.665Z,77.40
2017-07-12T04:02:57.033Z,77.10
2017-07-12T04:05:25.370Z,76.40
2017-07-12T04:07:53.692Z,76.00
2017-07-12T04:10:22.042Z,76.10
2017-07-12T04:12:50.360Z,76.10
2017-07-12T04:15:18.697Z,76.40
2017-07-12T04:17:47.014Z,76.60
2017-07-12T04:20:15.353Z,76.80
2017-07-12T04:22:43.666Z,76.70
2017-07-12T04:25:12.001Z,76.50
2017-07-12T04:27:40.312Z,76.90
2017-07-12T04:30:08.652Z,76.60
2017-07-12T04:32:37.082Z,77.10
2017-07-12T04:35:05.417Z,78.00
2017-07-12T04:37:33.724Z,78.80
2017-07-12T04:40:02.097Z,79.40
2017-07-12T04:42:30.434Z,80.10
2017-07-12T04:44:58.780Z,80.60
2017-07-12T04:47:27.192Z,81.30
2017-07-12T04:49:55.549Z,81.60
2017-07-12T04:52:23.913Z,82.10
2017-07-12T04:54:52.256Z,81.40
2017-07-12T04:57:20.565Z,81.40
2017-07-12T04:59:48.909Z,82.00
2017-07-12T05:02:17.221Z,82.00
2017-07-12T05:04:45.568Z,82.20
2017-07-12T05:07:13.878Z,82.60
2017-07-12T05:09:42.259Z,82.70
2017-07-12T05:12:10.568Z,82.60
2017-07-12T05:14:38.921Z,82.80
2017-07-12T05:17:07.232Z,82.80
2017-07-12T05:19:35.541Z,82.90
2017-07-12T05:22:03.890Z,83.10
2017-07-12T05:24:31.437Z,83.10
2017-07-12T05:26:59.793Z,84.00
2017-07-12T05:29:28.107Z,84.10
2017-07-12T05:31:56.453Z,84.80
2017-07-12T05:34:24.784Z,84.70
2017-07-12T05:36:53.124Z,84.60
2017-07-12T05:39:21.439Z,84.60
2017-07-12T05:41:49.772Z,84.40
2017-07-12T05:44:18.096Z,84.30
2017-07-12T05:46:46.436Z,84.00
2017-07-12T05:49:14.755Z,83.90
2017-07-12T05:51:43.092Z,83.70
2017-07-12T05:54:11.406Z,83.40
2017-07-12T05:56:39.741Z,83.30
2017-07-12T05:59:08.066Z,83.20
2017-07-12T06:01:36.406Z,82.80
2017-07-12T06:04:04.736Z,82.90
2017-07-12T06:06:33.074Z,82.40
2017-07-12T06:09:01.379Z,82.00
2017-07-12T06:11:29.711Z,82.00
2017-07-12T06:13:58.032Z,81.80
2017-07-12T06:16:26.377Z,82.50
2017-07-12T06:18:54.685Z,82.60
2017-07-12T06:21:23.022Z,83.20
2017-07-12T06:23:51.328Z,82.20
2017-07-12T06:26:19.660Z,81.20
2017-07-12T06:28:47.980Z,81.10
2017-07-12T06:31:16.318Z,80.90
2017-07-12T06:33:44.644Z,81.40
2017-07-12T06:36:12.997Z,82.80
2017-07-12T06:38:41.309Z,82.30
2017-07-12T06:41:09.662Z,82.20
2017-07-12T06:43:37.978Z,82.20
2017-07-12T06:46:06.312Z,82.30
2017-07-12T06:48:34.621Z,82.70
2017-07-12T06:51:02.973Z,83.20
2017-07-12T06:53:31.284Z,83.00
2017-07-12T06:55:59.623Z,83.30
2017-07-12T06:58:27.932Z,83.50
2017-07-12T07:00:56.283Z,83.50
2017-07-12T07:03:24.592Z,83.30
2017-07-12T07:05:52.899Z,83.30
2017-07-12T07:08:21.232Z,83.00
2017-07-12T07:10:49.543Z,83.20
2017-07-12T07:13:17.897Z,83.30
2017-07-12T07:15:46.205Z,82.80
2017-07-12T07:18:14.550Z,82.50
2017-07-12T07:20:42.897Z,82.10
2017-07-12T07:23:11.228Z,81.60
2017-07-12T07:25:39.536Z,81.90
2017-07-12T07:28:07.885Z,81.90
2017-07-12T07:30:35.435Z,81.90
2017-07-12T07:33:03.776Z,80.90
2017-07-12T07:35:32.084Z,81.00
2017-07-12T07:38:00.420Z,80.40
2017-07-12T07:40:27.971Z,80.40
2017-07-12T07:42:56.315Z,79.70
2017-07-12T07:45:24.657Z,79.50
2017-07-12T07:47:53.005Z,80.00
2017-07-12T07:50:21.316Z,80.70
2017-07-12T07:52:49.656Z,81.10
2017-07-12T07:55:17.972Z,80.80
2017-07-12T07:57:46.312Z,80.10
2017-07-12T08:00:14.636Z,79.60
2017-07-12T08:02:42.979Z,79.90
2017-07-12T08:05:11.287Z,80.30
2017-07-12T08:07:39.624Z,80.60
2017-07-12T08:10:07.948Z,80.60
2017-07-12T08:12:36.296Z,80.70
2017-07-12T08:15:04.611Z,80.40
2017-07-12T08:17:32.960Z,80.20
2017-07-12T08:20:01.287Z,80.00
2017-07-12T08:22:29.619Z,79.60
2017-07-12T08:24:57.931Z,79.30
2017-07-12T08:27:26.279Z,79.00
2017-07-12T08:29:54.591Z,77.80
2017-07-12T08:32:22.940Z,77.30
2017-07-12T08:34:51.261Z,76.90
2017-07-12T08:37:19.618Z,77.00
2017-07-12T08:39:47.939Z,77.20
2017-07-12T08:42:16.275Z,78.30
2017-07-12T08:44:44.587Z,79.50
2017-07-12T08:47:12.933Z,79.70
2017-07-12T08:49:41.244Z,80.80
2017-07-12T08:52:09.595Z,80.60
2017-07-12T08:54:37.908Z,80.30
2017-07-12T08:57:06.229Z,80.70
2017-07-12T08:59:34.572Z,80.70
2017-07-12T09:02:02.900Z,80.60
2017-07-12T09:04:31.241Z,79.30
2017-07-12T09:06:59.560Z,77.90
2017-07-12T09:09:27.908Z,75.60
2017-07-12T09:11:56.227Z,74.80
2017-07-12T09:14:24.579Z,74.70
2017-07-12T09:16:52.895Z,74.10
2017-07-12T09:19:21.233Z,74.50
2017-07-12T09:21:49.564Z,73.60
2017-07-12T09:34:10.460Z,73.80
2017-07-12T09:36:38.778Z,76.00
2017-07-12T09:39:07.126Z,76.90
2017-07-12T09:41:35.444Z,76.20
2017-07-12T09:44:03.780Z,77.20
2017-07-12T09:46:32.111Z,77.50
2017-07-12T09:49:00.445Z,77.70
2017-07-12T09:51:28.776Z,77.50
2017-07-12T09:53:57.122Z,78.10
2017-07-12T09:56:25.432Z,77.30
2017-07-12T09:58:53.040Z,77.10
2017-07-12T10:01:21.357Z,78.10
2017-07-12T10:03:49.696Z,77.60
2017-07-12T10:06:18.011Z,78.00
2017-07-12T10:08:46.348Z,77.40
2017-07-12T10:11:14.672Z,76.90
2017-07-12T10:13:43.016Z,76.90
2017-07-12T10:16:11.321Z,77.30
2017-07-12T10:18:39.679Z,76.70
2017-07-12T10:21:07.997Z,75.80
2017-07-12T10:23:36.339Z,76.20
2017-07-12T10:26:04.659Z,76.60
2017-07-12T10:28:32.996Z,76.30
2017-07-12T10:31:01.315Z,76.80
2017-07-12T10:33:29.662Z,76.90
2017-07-12T10:35:57.975Z,75.50
2017-07-12T10:38:26.320Z,75.20
2017-07-12T10:40:54.638Z,74.40
2017-07-12T10:43:23.083Z,72.40
2017-07-12T10:45:51.392Z,71.90
2017-07-12T10:48:19.736Z,70.40
2017-07-12T10:50:48.050Z,70.50
2017-07-12T10:53:15.596Z,70.50
2017-07-12T10:55:43.961Z,68.60
2017-07-12T10:58:12.282Z,68.10
2017-07-12T11:00:40.617Z,69.40
2017-07-12T11:03:08.923Z,70.40
2017-07-12T11:05:36.501Z,70.40
2017-07-12T11:08:04.819Z,71.10
2017-07-12T11:10:33.160Z,72.30
2017-07-12T11:13:01.467Z,72.90
2017-07-12T11:15:29.800Z,72.80
2017-07-12T11:17:58.114Z,70.60
2017-07-12T11:20:26.460Z,70.20
2017-07-12T11:22:54.771Z,70.50
2017-07-12T11:25:23.129Z,69.30
2017-07-12T11:27:51.449Z,70.90
2017-07-12T11:30:19.796Z,73.00
2017-07-12T11:32:48.105Z,75.00
2017-07-12T11:35:15.673Z,74.90
2017-07-12T11:37:43.985Z,77.10
2017-07-12T11:40:12.326Z,76.30
2017-07-12T11:42:40.636Z,73.70
2017-07-12T11:45:08.981Z,72.90
2017-07-12T11:47:37.437Z,72.70
2017-07-12T11:50:05.013Z,72.80
2017-07-12T11:52:33.346Z,73.00
2017-07-12T11:55:01.684Z,69.00
2017-07-12T11:57:29.997Z,69.00
2017-07-12T11:59:58.405Z,68.50
2017-07-12T12:02:26.770Z,68.80
2017-07-12T12:04:55.219Z,68.70
2017-07-12T12:07:23.544Z,68.50
2017-07-12T12:09:51.917Z,67.80
2017-07-12T12:12:19.475Z,67.70
2017-07-12T12:14:47.091Z,67.70
2017-07-12T12:17:16.566Z,69.70
2017-07-12T12:19:44.907Z,71.10
2017-07-12T12:22:13.245Z,72.00
2017-07-12T12:24:40.904Z,72.00
2017-07-12T12:27:09.220Z,69.90
2017-07-12T12:29:37.575Z,68.80
2017-07-12T12:32:05.892Z,69.00
2017-07-12T12:34:34.241Z,68.70
2017-07-12T12:37:02.560Z,69.70
2017-07-12T12:39:31.040Z,70.90
2017-07-12T12:41:59.356Z,71.40
2017-07-12T12:44:28.274Z,71.00
2017-07-12T12:46:56.611Z,70.60
2017-07-12T12:49:24.982Z,71.30
2017-07-12T12:51:52.544Z,71.30
2017-07-12T12:54:20.873Z,71.10
2017-07-12T12:56:49.223Z,73.30
2017-07-12T12:59:17.548Z,73.10
2017-07-12T13:01:45.901Z,73.80
2017-07-12T13:04:19.070Z,73.80
2017-07-12T13:06:47.439Z,76.40
2017-07-12T13:09:15.759Z,76.60
2017-07-12T13:11:44.109Z,78.00
2017-07-12T13:14:12.433Z,79.10
2017-07-12T13:16:40.780Z,79.30
2017-07-12T13:19:09.177Z,79.90
2017-07-12T13:21:37.525Z,78.10
2017-07-12T13:24:05.844Z,75.70
2017-07-12T13:26:34.192Z,75.70
2017-07-12T13:29:02.577Z,74.90
2017-07-12T13:31:30.916Z,74.00
2017-07-12T13:34:01.171Z,72.30
2017-07-12T13:36:29.512Z,71.50
2017-07-12T13:38:57.862Z,71.50
2017-07-12T13:41:26.204Z,70.80
2017-07-12T13:43:54.511Z,70.40
2017-07-12T13:46:22.849Z,71.60
2017-07-12T13:48:51.168Z,71.80
2017-07-12T13:51:19.505Z,72.30
2017-07-12T13:53:47.967Z,73.60
2017-07-12T13:56:16.314Z,72.40
2017-07-12T13:58:44.628Z,72.60
2017-07-12T14:01:12.968Z,72.60
2017-07-12T14:03:41.289Z,72.40
2017-07-12T14:06:09.627Z,73.40
2017-07-12T14:08:37.197Z,73.50
2017-07-12T14:11:05.544Z,74.00
2017-07-12T14:13:33.980Z,74.10
2017-07-12T14:16:02.323Z,73.40
2017-07-12T14:18:30.654Z,73.00
2017-07-12T14:20:59.014Z,72.20
2017-07-12T14:23:27.327Z,70.80
2017-07-12T14:25:54.911Z,70.80
2017-07-12T14:28:23.221Z,69.50
2017-07-12T14:30:51.560Z,69.70
2017-07-12T14:33:19.868Z,69.40
2017-07-12T14:35:47.464Z,69.30
2017-07-12T14:38:15.776Z,70.10
2017-07-12T14:40:44.131Z,71.70
2017-07-12T14:43:12.441Z,72.50
2017-07-12T14:45:40.016Z,72.50
2017-07-12T14:48:08.324Z,71.40
2017-07-12T14:50:36.690Z,72.30
2017-07-12T14:53:05.013Z,72.80
2017-07-12T14:55:33.329Z,72.70
2017-07-12T14:58:01.676Z,73.30
2017-07-12T15:00:30.051Z,74.40
2017-07-12T15:02:58.475Z,74.60
2017-07-12T15:05:26.787Z,74.80
2017-07-12T15:07:55.131Z,74.50
2017-07-12T15:10:23.439Z,74.80
2017-07-12T15:12:51.778Z,75.30
2017-07-12T15:15:20.005Z,75.30
2017-07-12T15:17:48.356Z,75.80
2017-07-12T15:20:16.674Z,76.10
2017-07-12T15:22:45.013Z,76.60
2017-07-12T15:25:13.584Z,76.70
2017-07-12T15:27:41.966Z,76.80
2017-07-12T15:30:10.375Z,76.70
2017-07-12T15:32:38.720Z,76.90
2017-07-12T15:35:07.040Z,76.70
2017-07-12T15:37:35.384Z,76.80
2017-07-12T15:40:03.707Z,77.20
2017-07-12T15:42:32.039Z,76.30
2017-07-12T15:45:00.349Z,75.60
2017-07-12T15:47:28.708Z,75.50
2017-07-12T15:49:57.050Z,73.90
2017-07-12T15:52:25.398Z,74.30
2017-07-12T15:54:53.714Z,75.20
2017-07-12T15:57:22.061Z,75.10
2017-07-12T15:59:50.368Z,75.50
2017-07-12T16:02:17.952Z,75.50
2017-07-12T16:04:46.266Z,74.20
2017-07-12T16:07:14.614Z,72.60
2017-07-12T16:09:42.937Z,73.20
2017-07-12T16:12:11.274Z,74.50
2017-07-12T16:14:39.588Z,74.80
2017-07-12T16:17:07.926Z,74.60
2017-07-12T16:19:36.241Z,74.30
2017-07-12T16:22:03.819Z,74.30
2017-07-12T16:24:32.121Z,74.50
2017-07-12T16:27:00.457Z,73.90
2017-07-12T16:29:28.780Z,74.80
2017-07-12T16:31:57.163Z,75.40
2017-07-12T16:34:25.483Z,76.10
2017-07-12T16:36:53.924Z,76.70
2017-07-12T16:39:22.272Z,76.20
2017-07-12T16:41:50.600Z,76.50
2017-07-12T16:44:18.913Z,76.50
2017-07-12T16:46:47.252Z,76.40
2017-07-12T16:49:15.583Z,77.70
2017-07-12T16:51:43.940Z,77.20
2017-07-12T16:54:12.251Z,76.30
2017-07-12T16:56:40.568Z,77.80
2017-07-12T16:59:08.951Z,76.80
2017-07-12T17:01:36.508Z,76.80
2017-07-12T17:04:04.857Z,76.60
2017-07-12T17:06:33.184Z,75.50
2017-07-12T17:09:01.528Z,76.40
2017-07-12T17:11:29.841Z,76.60
2017-07-12T17:13:58.189Z,76.00
2017-07-12T17:16:26.499Z,75.40
2017-07-12T17:18:54.831Z,72.80
2017-07-12T17:21:23.152Z,67.50
2017-07-12T17:23:51.503Z,62.80
2017-07-12T17:26:19.813Z,59.70
2017-07-12T17:28:48.177Z,58.60
2017-07-12T17:31:16.501Z,59.30
2017-07-12T17:33:44.843Z,60.80
2017-07-12T17:36:13.159Z,63.70
2017-07-12T17:38:41.510Z,64.80
2017-07-12T17:41:09.824Z,66.10
2017-07-12T17:43:38.163Z,68.00
2017-07-12T17:46:06.478Z,68.70
2017-07-12T17:48:34.052Z,68.60
2017-07-12T17:51:02.369Z,70.60
2017-07-12T17:53:31.711Z,71.80
2017-07-12T17:56:00.023Z,72.90
2017-07-12T17:58:28.369Z,73.00
2017-07-12T18:00:56.688Z,73.20
2017-07-12T18:03:25.032Z,73.60
2017-07-12T18:05:53.355Z,73.20
2017-07-12T18:08:21.695Z,73.90
2017-07-12T18:10:50.009Z,73.70
2017-07-12T18:13:18.358Z,72.30
2017-07-12T18:15:46.692Z,72.60
2017-07-12T18:18:15.029Z,73.00
2017-07-12T18:20:43.344Z,73.00
2017-07-12T18:23:11.769Z,73.10
2017-07-12T18:25:40.075Z,73.10
2017-07-12T18:28:08.407Z,71.70
2017-07-12T18:30:36.718Z,71.90
2017-07-12T18:33:05.063Z,72.20
2017-07-12T18:35:33.396Z,71.70
2017-07-12T18:38:01.752Z,72.40
2017-07-12T18:40:30.066Z,72.50
2017-07-12T18:42:58.447Z,72.90
2017-07-12T18:45:26.755Z,74.10
2017-07-12T18:47:55.098Z,74.90
2017-07-12T18:50:22.641Z,75.50
2017-07-12T18:52:50.196Z,75.70
2017-07-12T18:55:18.544Z,76.40
2017-07-12T18:57:46.872Z,75.70
2017-07-12T19:00:14.439Z,75.70
2017-07-12T19:02:42.762Z,76.30
2017-07-12T19:05:11.107Z,76.40
2017-07-12T19:07:39.430Z,76.70
2017-07-12T19:10:07.773Z,76.80
2017-07-12T19:12:36.084Z,77.60
2017-07-12T19:15:04.432Z,78.30
2017-07-12T19:17:32.744Z,79.10
2017-07-12T19:20:01.092Z,79.50
2017-07-12T19:22:29.411Z,80.10
2017-07-12T19:24:57.764Z,80.20
2017-07-12T19:27:26.090Z,80.20
2017-07-12T19:29:54.441Z,80.20
2017-07-12T19:32:22.762Z,80.10
2017-07-12T19:34:51.142Z,80.40
2017-07-12T19:37:19.461Z,80.20
2017-07-12T19:39:47.818Z,81.10
2017-07-12T19:42:16.136Z,81.60
2017-07-12T19:44:44.476Z,81.70
2017-07-12T19:47:12.800Z,82.00
2017-07-12T19:49:41.164Z,82.00
2017-07-12T19:52:09.484Z,82.00
2017-07-12T19:54:37.851Z,82.30
2017-07-12T19:57:06.178Z,82.30
2017-07-12T19:59:34.526Z,82.60
2017-07-12T20:02:02.857Z,82.70
2017-07-12T20:04:31.209Z,82.80
2017-07-12T20:06:59.541Z,82.60
2017-07-12T20:09:27.898Z,82.30
2017-07-12T20:11:56.223Z,82.40
2017-07-12T20:14:24.572Z,82.70
2017-07-12T20:16:52.905Z,82.80
2017-07-12T20:19:21.266Z,82.90
2017-07-12T20:21:50.616Z,83.40
2017-07-12T20:24:18.206Z,83.40
2017-07-12T20:26:46.550Z,83.80
2017-07-12T20:29:14.916Z,84.30
2017-07-12T20:31:42.481Z,84.30
2017-07-12T20:34:10.833Z,84.50
2017-07-12T20:36:39.161Z,84.80
2017-07-12T20:39:07.528Z,84.70
2017-07-12T20:41:35.872Z,84.50
2017-07-12T20:44:04.229Z,84.40
2017-07-12T20:46:32.547Z,84.30
2017-07-12T20:49:00.917Z,84.30
2017-07-12T20:51:28.483Z,84.30
2017-07-12T20:53:56.810Z,85.00
2017-07-12T20:56:25.170Z,85.50
2017-07-12T20:58:52.773Z,84.90
2017-07-12T21:01:20.368Z,84.90
2017-07-12T21:03:48.810Z,85.30
2017-07-12T21:06:17.164Z,85.30
2017-07-12T21:08:45.498Z,85.10
2017-07-12T21:11:13.943Z,84.80
2017-07-12T21:13:42.252Z,85.00
2017-07-12T21:16:10.709Z,85.00
2017-07-12T21:18:39.027Z,85.10
2017-07-12T21:21:07.415Z,85.10
2017-07-12T21:23:35.732Z,85.20
2017-07-12T21:26:04.072Z,85.40
2017-07-12T21:28:32.391Z,85.60
2017-07-12T21:30:59.964Z,85.70
2017-07-12T21:33:28.273Z,85.80
2017-07-12T21:35:56.610Z,85.80
2017-07-12T21:38:24.919Z,85.80
2017-07-12T21:40:53.276Z,85.80
2017-07-12T21:43:21.588Z,85.70
2017-07-12T21:45:49.938Z,85.60
2017-07-12T21:48:18.288Z,86.00
2017-07-12T21:50:46.625Z,87.30
2017-07-12T21:53:32.684Z,86.10
2017-07-12T21:56:18.508Z,86.10
2017-07-12T21:59:04.255Z,86.30
2017-07-12T22:01:50.252Z,86.30
2017-07-12T22:04:36.177Z,86.60
2017-07-12T22:07:22.013Z,86.60
2017-07-12T22:10:07.838Z,86.80
2017-07-12T22:12:53.608Z,87.00
2017-07-12T22:15:39.520Z,87.00
2017-07-12T22:18:25.337Z,86.70
2017-07-12T22:21:11.400Z,86.80
2017-07-12T22:23:57.263Z,87.30
2017-07-12T22:26:43.111Z,87.30
2017-07-12T22:29:29.387Z,87.30
2017-07-12T22:32:15.345Z,87.20
2017-07-12T22:35:01.526Z,87.00
2017-07-12T22:37:35.431Z,86.60
2017-07-12T22:40:09.329Z,86.20
2017-07-12T22:42:43.377Z,85.90
2017-07-12T22:45:11.732Z,85.90
2017-07-12T22:47:40.069Z,86.30
2017-07-12T22:50:08.452Z,86.30
2017-07-12T22:52:36.772Z,86.20
2017-07-12T22:55:05.163Z,86.10
2017-07-12T22:57:33.536Z,86.00
2017-07-12T23:00:01.847Z,86.20
2017-07-12T23:02:30.200Z,86.50
2017-07-12T23:04:58.517Z,86.60
2017-07-12T23:07:26.929Z,86.80
2017-07-12T23:09:55.277Z,87.00
2017-07-12T23:12:23.623Z,87.10
2017-07-12T23:14:51.967Z,87.10
2017-07-12T23:17:20.317Z,86.70
2017-07-12T23:19:48.636Z,86.60
2017-07-12T23:22:16.980Z,86.90
2017-07-12T23:24:44.527Z,86.80
2017-07-12T23:27:12.870Z,86.80
2017-07-12T23:29:41.224Z,87.40
2017-07-12T23:32:08.781Z,86.50
2017-07-12T23:34:37.093Z,86.50
2017-07-12T23:37:05.444Z,86.40
2017-07-12T23:39:33.751Z,86.30
2017-07-12T23:42:02.094Z,86.20
2017-07-12T23:44:30.478Z,86.00
2017-07-12T23:46:58.816Z,85.90
2017-07-12T23:49:27.236Z,86.70
2017-07-12T23:51:55.579Z,85.70
2017-07-12T23:54:23.888Z,85.50
2017-07-12T23:56:52.289Z,85.50
2017-07-12T23:59:20.599Z,85.80
